地図

経路データ

SID SEASON NUMBER BASIN SUBBASIN NAME ISO_TIME NATURE LAT LON WMO_WIND WMO_PRES WMO_AGENCY TRACK_TYPE DIST2LAND LANDFALL IFLAG USA_AGENCY USA_ATCF_ID USA_LAT USA_LON USA_RECORD USA_STATUS USA_WIND USA_PRES USA_SSHS USA_R34_NE USA_R34_SE USA_R34_SW USA_R34_NW USA_R50_NE USA_R50_SE USA_R50_SW USA_R50_NW USA_R64_NE USA_R64_SE USA_R64_SW USA_R64_NW USA_POCI USA_ROCI USA_RMW USA_EYE TOKYO_LAT TOKYO_LON TOKYO_GRADE TOKYO_WIND TOKYO_PRES TOKYO_R50_DIR TOKYO_R50_LONG TOKYO_R50_SHORT TOKYO_R30_DIR TOKYO_R30_LONG TOKYO_R30_SHORT TOKYO_LAND CMA_LAT CMA_LON CMA_CAT CMA_WIND CMA_PRES HKO_LAT HKO_LON HKO_CAT HKO_WIND HKO_PRES NEWDELHI_LAT NEWDELHI_LON NEWDELHI_GRADE NEWDELHI_WIND NEWDELHI_PRES NEWDELHI_CI NEWDELHI_DP NEWDELHI_POCI REUNION_LAT REUNION_LON REUNION_TYPE REUNION_WIND REUNION_PRES REUNION_TNUM REUNION_CI REUNION_RMW REUNION_R34_NE REUNION_R34_SE REUNION_R34_SW REUNION_R34_NW REUNION_R50_NE REUNION_R50_SE REUNION_R50_SW REUNION_R50_NW REUNION_R64_NE REUNION_R64_SE REUNION_R64_SW REUNION_R64_NW BOM_LAT BOM_LON BOM_TYPE BOM_WIND BOM_PRES BOM_TNUM BOM_CI BOM_RMW BOM_R34_NE BOM_R34_SE BOM_R34_SW BOM_R34_NW BOM_R50_NE BOM_R50_SE BOM_R50_SW BOM_R50_NW BOM_R64_NE BOM_R64_SE BOM_R64_SW BOM_R64_NW BOM_ROCI BOM_POCI BOM_EYE BOM_POS_METHOD BOM_PRES_METHOD NADI_LAT NADI_LON NADI_CAT NADI_WIND NADI_PRES WELLINGTON_LAT WELLINGTON_LON WELLINGTON_WIND WELLINGTON_PRES DS824_LAT DS824_LON DS824_STAGE DS824_WIND DS824_PRES TD9636_LAT TD9636_LON TD9636_STAGE TD9636_WIND TD9636_PRES TD9635_LAT TD9635_LON TD9635_WIND TD9635_PRES TD9635_ROCI NEUMANN_LAT NEUMANN_LON NEUMANN_CLASS NEUMANN_WIND NEUMANN_PRES MLC_LAT MLC_LON MLC_CLASS MLC_WIND MLC_PRES USA_GUST BOM_GUST BOM_GUST_PER REUNION_GUST REUNION_GUST_PER USA_SEAHGT USA_SEARAD_NE USA_SEARAD_SE USA_SEARAD_SW USA_SEARAD_NW STORM_SPEED STORM_DIR
1890289N12124 1890 36 WP MM NOT_NAMED 1890-10-16 04:00:00 NR 12.2000 124.000 main 11 11 __________O___ -1 12.2000 124.000 7 10 317
1890289N12124 1890 36 WP MM NOT_NAMED 1890-10-16 06:00:00 NR 12.4459 123.767 main 22 15 __________P___ -1 12.4459 123.767 7 10 317
1890289N12124 1890 36 WP MM NOT_NAMED 1890-10-16 09:00:00 NR 12.8162 123.417 main 22 0 __________P___ -1 12.8162 123.417 7 10 317
1890289N12124 1890 36 WP MM NOT_NAMED 1890-10-16 12:00:00 NR 13.1903 123.067 main 21 10 __________P___ -1 13.1903 123.067 7 10 318
1890289N12124 1890 36 WP MM NOT_NAMED 1890-10-16 15:00:00 NR 13.5711 122.717 main 15 10 __________P___ -1 13.5711 122.717 7 10 318
1890289N12124 1890 36 WP MM NOT_NAMED 1890-10-16 16:00:00 NR 13.7000 122.600 main 10 0 __________O___ -1 13.7000 122.600 7 10 319
1890289N12124 1890 36 WP MM NOT_NAMED 1890-10-16 18:00:00 NR 13.9595 122.368 main 0 0 __________P___ -1 13.9595 122.368 7 10 319
1890289N12124 1890 36 WP MM NOT_NAMED 1890-10-16 21:00:00 NR 14.3370 122.032 main 31 0 __________P___ -1 14.3370 122.032 7 10 319
1890289N12124 1890 36 WP MM NOT_NAMED 1890-10-17 00:00:00 NR 14.6724 121.726 main 0 0 __________P___ -1 14.6724 121.726 7 8 318
1890289N12124 1890 36 WP MM NOT_NAMED 1890-10-17 03:00:00 NR 14.9344 121.471 main 0 0 __________P___ -1 14.9344 121.471 7 7 316
1890289N12124 1890 36 WP MM NOT_NAMED 1890-10-17 04:00:00 NR 15.0000 121.400 main 0 0 __________O___ -1 15.0000 121.400 7 5 312
1890289N12124 1890 36 WP MM NOT_NAMED 1890-10-17 06:00:00 NR 15.0876 121.292 main 0 0 __________P___ -1 15.0876 121.292 7 3 305
1890289N12124 1890 36 WP MM NOT_NAMED 1890-10-17 09:00:00 NR 15.1435 121.182 main 0 0 __________P___ -1 15.1435 121.182 7 2 286
1890289N12124 1890 36 WP MM NOT_NAMED 1890-10-17 12:00:00 NR 15.1395 121.105 main 0 0 __________P___ -1 15.1395 121.105 7 2 257
1890289N12124 1890 36 WP MM NOT_NAMED 1890-10-17 15:00:00 NR 15.1097 121.030 main 0 0 __________P___ -1 15.1097 121.030 7 2 249
1890289N12124 1890 36 WP MM NOT_NAMED 1890-10-17 16:00:00 NR 15.1000 121.000 main 0 0 __________O___ -1 15.1000 121.000 7 2 268
1890289N12124 1890 36 WP MM NOT_NAMED 1890-10-17 18:00:00 NR 15.1057 120.906 main 0 0 __________P___ -1 15.1057 120.906 7 3 272
1890289N12124 1890 36 WP MM NOT_NAMED 1890-10-17 21:00:00 NR 15.1080 120.753 main 0 0 __________P___ -1 15.1080 120.753 7 3 270
1890289N12124 1890 36 WP MM NOT_NAMED 1890-10-18 00:00:00 NR 15.1055 120.595 main 0 0 __________P___ -1 15.1055 120.595 7 3 269
1890289N12124 1890 36 WP MM NOT_NAMED 1890-10-18 03:00:00 NR 15.1012 120.446 main 0 0 __________P___ -1 15.1012 120.446 7 3 268
1890289N12124 1890 36 WP MM NOT_NAMED 1890-10-18 04:00:00 NR 15.1000 120.400 main 0 0 __________O___ -1 15.1000 120.400 7 2 269
1890289N12124 1890 36 WP MM NOT_NAMED 1890-10-18 06:00:00 NR 15.1000 120.325 main 0 0 __________P___ -1 15.1000 120.325 7 2 270
1890289N12124 1890 36 WP MM NOT_NAMED 1890-10-18 09:00:00 NR 15.0999 120.224 main 0 0 __________P___ -1 15.0999 120.224 7 2 270
1890289N12124 1890 36 WP MM NOT_NAMED 1890-10-18 12:00:00 NR 15.0999 120.130 main 0 0 __________P___ -1 15.0999 120.130 7 2 270
1890289N12124 1890 36 WP MM NOT_NAMED 1890-10-18 15:00:00 NR 15.1000 120.034 main 10 10 __________P___ -1 15.1000 120.034 7 2 270
1890289N12124 1890 36 WP MM NOT_NAMED 1890-10-18 16:00:00 NR 15.1000 120.000 main 10 10 __________O___ -1 15.1000 120.000 7 2 270
1890289N12124 1890 36 WP MM NOT_NAMED 1890-10-18 18:00:00 NR 15.1000 119.922 main 21 21 __________P___ -1 15.1000 119.922 7 2 270
1890289N12124 1890 36 WP MM NOT_NAMED 1890-10-18 21:00:00 NR 15.1000 119.800 main 31 31 __________P___ -1 15.1000 119.800 7 2 270
1890289N12124 1890 36 WP MM NOT_NAMED 1890-10-19 00:00:00 NR 15.1000 119.672 main 39 39 __________P___ -1 15.1000 119.672 7 2 270
1890289N12124 1890 36 WP MM NOT_NAMED 1890-10-19 03:00:00 NR 15.1000 119.543 main 54 54 __________P___ -1 15.1000 119.543 7 2 270
1890289N12124 1890 36 WP MM NOT_NAMED 1890-10-19 04:00:00 NR 15.1000 119.500 main 54 54 __________O___ -1 15.1000 119.500 7 2 270
1890289N12124 1890 36 WP MM NOT_NAMED 1890-10-19 06:00:00 NR 15.1000 119.422 main 63 63 __________P___ -1 15.1000 119.422 7 2 270
1890289N12124 1890 36 WP MM NOT_NAMED 1890-10-19 09:00:00 NR 15.0999 119.305 main 72 72 __________P___ -1 15.0999 119.305 7 2 270
1890289N12124 1890 36 WP MM NOT_NAMED 1890-10-19 12:00:00 NR 15.0999 119.182 main 82 82 __________P___ -1 15.0999 119.182 7 2 270
1890289N12124 1890 36 WP MM NOT_NAMED 1890-10-19 15:00:00 NR 15.1000 119.048 main 102 102 __________P___ -1 15.1000 119.048 7 3 270
1890289N12124 1890 36 WP MM NOT_NAMED 1890-10-19 16:00:00 NR 15.1000 119.000 main 102 102 __________O___ -1 15.1000 119.000 7 3 271
1890289N12124 1890 36 WP MM NOT_NAMED 1890-10-19 18:00:00 NR 15.1026 118.897 main 112 112 __________P___ -1 15.1026 118.897 7 3 271
1890289N12124 1890 36 WP MM NOT_NAMED 1890-10-19 21:00:00 NR 15.1066 118.731 main 133 133 __________P___ -1 15.1066 118.731 7 3 271
1890289N12124 1890 36 WP MM NOT_NAMED 1890-10-20 00:00:00 NR 15.1079 118.552 main 143 153 __________P___ -1 15.1079 118.552 7 4 269
1890289N12124 1890 36 WP MM NOT_NAMED 1890-10-20 03:00:00 NR 15.1033 118.364 main 164 164 __________P___ -1 15.1033 118.364 7 4 268
1890289N12124 1890 36 WP MM NOT_NAMED 1890-10-20 04:00:00 NR 15.1000 118.300 main 174 174 __________O___ -1 15.1000 118.300 7 4 265
1890289N12124 1890 36 WP MM NOT_NAMED 1890-10-20 06:00:00 NR 15.0864 118.167 main 185 185 __________P___ -1 15.0864 118.167 7 4 263
1890289N12124 1890 36 WP MM NOT_NAMED 1890-10-20 09:00:00 NR 15.0597 117.961 main 206 217 __________P___ -1 15.0597 117.961 7 4 262
1890289N12124 1890 36 WP MM NOT_NAMED 1890-10-20 12:00:00 NR 15.0309 117.756 main 229 240 __________P___ -1 15.0309 117.756 7 4 262
1890289N12124 1890 36 WP MM NOT_NAMED 1890-10-20 15:00:00 NR 15.0062 117.561 main 250 250 __________P___ -1 15.0062 117.561 7 4 263
1890289N12124 1890 36 WP MM NOT_NAMED 1890-10-20 16:00:00 NR 15.0000 117.500 main 261 261 __________O___ -1 15.0000 117.500 7 3 266
1890289N12124 1890 36 WP MM NOT_NAMED 1890-10-20 18:00:00 NR 14.9942 117.389 main 270 270 __________P___ -1 14.9942 117.389 7 3 268
1890289N12124 1890 36 WP MM NOT_NAMED 1890-10-20 21:00:00 NR 14.9919 117.234 main 290 290 __________P___ -1 14.9919 117.234 7 3 270
1890289N12124 1890 36 WP MM NOT_NAMED 1890-10-21 00:00:00 NR 14.9945 117.089 main 300 300 __________P___ -1 14.9945 117.089 7 3 271
1890289N12124 1890 36 WP MM NOT_NAMED 1890-10-21 03:00:00 NR 14.9987 116.948 main 320 320 __________P___ -1 14.9987 116.948 7 3 272
1890289N12124 1890 36 WP MM NOT_NAMED 1890-10-21 04:00:00 NR 15.0000 116.900 main 320 320 __________O___ -1 15.0000 116.900 7 3 272
1890289N12124 1890 36 WP MM NOT_NAMED 1890-10-21 06:00:00 NR 15.0026 116.805 main 330 330 __________P___ -1 15.0026 116.805 7 3 272
1890289N12124 1890 36 WP MM NOT_NAMED 1890-10-21 09:00:00 NR 15.0065 116.663 main 340 340 __________P___ -1 15.0065 116.663 7 3 271
1890289N12124 1890 36 WP MM NOT_NAMED 1890-10-21 12:00:00 NR 15.0078 116.516 main 360 360 __________P___ -1 15.0078 116.516 7 3 269
1890289N12124 1890 36 WP MM NOT_NAMED 1890-10-21 15:00:00 NR 15.0033 116.357 main 371 381 __________P___ -1 15.0033 116.357 7 3 268
1890289N12124 1890 36 WP MM NOT_NAMED 1890-10-21 16:00:00 NR 15.0000 116.300 main 381 381 __________O___ -1 15.0000 116.300 7 3 264
1890289N12124 1890 36 WP MM NOT_NAMED 1890-10-21 18:00:00 NR 14.9864 116.181 main 391 391 __________P___ -1 14.9864 116.181 7 4 262
1890289N12124 1890 36 WP MM NOT_NAMED 1890-10-21 21:00:00 NR 14.9597 115.989 main 412 412 __________P___ -1 14.9597 115.989 7 4 262
1890289N12124 1890 36 WP MM NOT_NAMED 1890-10-22 00:00:00 NR 14.9308 115.785 main 435 435 __________P___ -1 14.9308 115.785 7 4 262
1890289N12124 1890 36 WP MM NOT_NAMED 1890-10-22 03:00:00 NR 14.9062 115.572 main 456 456 __________P___ -1 14.9062 115.572 7 4 264
1890289N12124 1890 36 WP MM NOT_NAMED 1890-10-22 04:00:00 NR 14.9000 115.500 main 466 466 __________O___ -1 14.9000 115.500 3 4 268
1890289N12124 1890 36 WP MM NOT_NAMED 1890-10-22 06:00:00 NR 14.8969 115.348 main 487 487 __________P___ -1 14.8969 115.348 3 4 270
1890289N12124 1890 36 WP MM NOT_NAMED 1890-10-22 09:00:00 NR 14.8987 115.113 main 508 508 __________P___ -1 14.8987 115.113 3 5 271
1890289N12124 1890 36 WP MM NOT_NAMED 1890-10-22 12:00:00 NR 14.9025 114.882 main 529 529 __________P___ -1 14.9025 114.882 3 4 270
1890289N12124 1890 36 WP MM NOT_NAMED 1890-10-22 15:00:00 NR 14.9021 114.666 main 550 550 __________P___ -1 14.9021 114.666 3 4 269
1890289N12124 1890 36 WP MM NOT_NAMED 1890-10-22 16:00:00 NR 14.9000 114.600 main 560 560 __________O___ -1 14.9000 114.600 4 3 265
1890289N12124 1890 36 WP MM NOT_NAMED 1890-10-22 18:00:00 NR 14.8888 114.504 main 570 560 __________P___ -1 14.8888 114.504 4 3 261
1890289N12124 1890 36 WP MM NOT_NAMED 1890-10-22 21:00:00 NR 14.8658 114.379 main 560 537 __________P___ -1 14.8658 114.379 4 3 259
1890289N12124 1890 36 WP MM NOT_NAMED 1890-10-23 00:00:00 NR 14.8383 114.247 main 537 527 __________P___ -1 14.8383 114.247 4 3 259
1890289N12124 1890 36 WP MM NOT_NAMED 1890-10-23 03:00:00 NR 14.8094 114.073 main 527 516 __________P___ -1 14.8094 114.073 4 4 261
1890289N12124 1890 36 WP MM NOT_NAMED 1890-10-23 04:00:00 NR 14.8000 114.000 main 516 495 __________O___ -1 14.8000 114.000 4 5 264
1890289N12124 1890 36 WP MM NOT_NAMED 1890-10-23 06:00:00 NR 14.7835 113.807 main 495 463 __________P___ -1 14.7835 113.807 4 6 265
1890289N12124 1890 36 WP MM NOT_NAMED 1890-10-23 09:00:00 NR 14.7587 113.467 main 463 419 __________P___ -1 14.7587 113.467 4 7 266
1890289N12124 1890 36 WP MM NOT_NAMED 1890-10-23 12:00:00 NR 14.7336 113.094 main 419 377 __________P___ -1 14.7336 113.094 4 7 266
1890289N12124 1890 36 WP MM NOT_NAMED 1890-10-23 15:00:00 NR 14.7084 112.720 main 377 366 __________P___ -1 14.7084 112.720 4 7 266
1890289N12124 1890 36 WP MM NOT_NAMED 1890-10-23 16:00:00 NR 14.7000 112.600 main 366 345 __________O___ -1 14.7000 112.600 4 6 265
1890289N12124 1890 36 WP MM NOT_NAMED 1890-10-23 18:00:00 NR 14.6806 112.386 main 345 314 __________P___ -1 14.6806 112.386 4 6 265
1890289N12124 1890 36 WP MM NOT_NAMED 1890-10-23 21:00:00 NR 14.6515 112.077 main 314 280 __________P___ -1 14.6515 112.077 4 6 265
1890289N12124 1890 36 WP MM NOT_NAMED 1890-10-24 00:00:00 NR 14.6253 111.781 main 280 249 __________P___ -1 14.6253 111.781 4 6 265
1890289N12124 1890 36 WP MM NOT_NAMED 1890-10-24 03:00:00 NR 14.6049 111.494 main 249 239 __________P___ -1 14.6049 111.494 4 6 266
1890289N12124 1890 36 WP MM NOT_NAMED 1890-10-24 04:00:00 NR 14.6000 111.400 main 239 219 __________O___ -1 14.6000 111.400 4 5 267
1890289N12124 1890 36 WP MM NOT_NAMED 1890-10-24 06:00:00 NR 14.5889 111.211 main 219 189 __________P___ -1 14.5889 111.211 4 5 267
1890289N12124 1890 36 WP MM NOT_NAMED 1890-10-24 09:00:00 NR 14.5786 110.934 main 189 170 __________P___ -1 14.5786 110.934 4 5 269
1890289N12124 1890 36 WP MM NOT_NAMED 1890-10-24 12:00:00 NR 14.5786 110.661 main 170 139 __________P___ -1 14.5786 110.661 4 5 271
1890289N12124 1890 36 WP MM NOT_NAMED 1890-10-24 15:00:00 NR 14.5920 110.390 main 139 129 __________P___ -1 14.5920 110.390 4 5 274
1890289N12124 1890 36 WP MM NOT_NAMED 1890-10-24 16:00:00 NR 14.6000 110.300 main 129 107 __________O___ -1 14.6000 110.300 4 5 276
1890289N12124 1890 36 WP MM NOT_NAMED 1890-10-24 18:00:00 NR 14.6216 110.118 main 107 75 __________P___ -1 14.6216 110.118 4 5 278
1890289N12124 1890 36 WP MM NOT_NAMED 1890-10-24 21:00:00 NR 14.6656 109.844 main 75 53 __________P___ -1 14.6656 109.844 4 5 280
1890289N12124 1890 36 WP MM NOT_NAMED 1890-10-25 00:00:00 NR 14.7198 109.569 main 53 24 __________P___ -1 14.7198 109.569 4 5 282
1890289N12124 1890 36 WP MM NOT_NAMED 1890-10-25 03:00:00 NR 14.7796 109.292 main 24 15 __________P___ -1 14.7796 109.292 4 5 283
1890289N12124 1890 36 WP MM NOT_NAMED 1890-10-25 04:00:00 NR 14.8000 109.200 main 15 __________O___ -1 14.8000 109.200 4 5 283

デジタル台風データ・検索

IBTrACS Databaseについて

本データベースは、米国NOAAが公開する1842年以降の世界の熱帯低気圧のベストトラックデータアーカイブInternational Best Track Archive for Climate Stewardship (IBTrACS)を、ウェブで閲覧しやすい形式に変換したものです。

最終更新日:2021-12-01